createdAt,value
2022-09-29T00:00:37.255Z,8.89
2022-09-29T00:01:37.565Z,8.91
2022-09-29T00:02:37.563Z,8.91
2022-09-29T00:03:37.550Z,8.91
2022-09-29T00:04:37.472Z,8.93
2022-09-29T00:05:37.253Z,8.89
2022-09-29T00:06:37.314Z,8.89
2022-09-29T00:07:37.281Z,8.91
2022-09-29T00:08:37.281Z,8.89
2022-09-29T00:09:37.397Z,8.88
2022-09-29T00:10:37.330Z,8.88
2022-09-29T00:11:37.222Z,8.88
2022-09-29T00:12:37.443Z,8.89
2022-09-29T00:13:37.281Z,8.88
2022-09-29T00:14:37.140Z,8.86
2022-09-29T00:15:37.664Z,8.88
2022-09-29T00:16:37.199Z,8.88
2022-09-29T00:17:37.239Z,8.85
2022-09-29T00:18:37.088Z,8.83
2022-09-29T00:19:37.191Z,8.83
2022-09-29T00:20:37.228Z,8.82
2022-09-29T00:21:37.155Z,8.83
2022-09-29T00:22:37.157Z,8.83
2022-09-29T00:23:37.256Z,8.79
2022-09-29T00:24:37.022Z,8.79
2022-09-29T00:25:36.957Z,8.79
2022-09-29T00:26:37.066Z,8.76
2022-09-29T00:27:37.193Z,8.75
2022-09-29T00:28:36.933Z,8.73
2022-09-29T00:29:37.130Z,8.71
2022-09-29T00:30:37.035Z,8.71
2022-09-29T00:31:37.141Z,8.70
2022-09-29T00:32:36.927Z,8.68
2022-09-29T00:33:37.149Z,8.68
2022-09-29T00:34:36.945Z,8.70
2022-09-29T00:35:36.905Z,8.68
2022-09-29T00:36:36.871Z,8.68
2022-09-29T00:37:36.818Z,8.67
2022-09-29T00:38:37.279Z,8.63
2022-09-29T00:39:36.707Z,8.61
2022-09-29T00:40:36.790Z,8.58
2022-09-29T00:41:36.729Z,8.55
2022-09-29T00:42:36.769Z,8.55
2022-09-29T00:43:36.723Z,8.55
2022-09-29T00:44:36.699Z,8.55
2022-09-29T00:45:36.841Z,8.55
2022-09-29T00:46:57.769Z,8.57
2022-09-29T00:47:36.743Z,8.55
2022-09-29T00:48:36.680Z,8.57
2022-09-29T00:49:36.725Z,8.55
2022-09-29T00:50:36.740Z,8.55
2022-09-29T00:51:36.795Z,8.54
2022-09-29T00:52:36.658Z,8.54
2022-09-29T00:53:36.603Z,8.54
2022-09-29T00:54:36.751Z,8.52
2022-09-29T00:55:36.715Z,8.52
2022-09-29T00:56:36.911Z,8.50
2022-09-29T00:57:36.708Z,8.50
2022-09-29T00:58:36.564Z,8.49
2022-09-29T00:59:36.739Z,8.47
2022-09-29T01:00:36.749Z,8.39
2022-09-29T01:01:36.661Z,8.31
2022-09-29T01:02:36.689Z,8.25
2022-09-29T01:03:36.508Z,8.18
2022-09-29T01:04:39.973Z,8.14
2022-09-29T01:05:36.416Z,8.14
2022-09-29T01:06:36.711Z,8.10
2022-09-29T01:07:36.568Z,8.10
2022-09-29T01:08:36.337Z,8.10
2022-09-29T01:09:36.455Z,8.12
2022-09-29T01:10:36.340Z,8.13
2022-09-29T01:11:36.336Z,8.17
2022-09-29T01:12:36.416Z,8.17
2022-09-29T01:13:36.246Z,8.18
2022-09-29T01:14:36.439Z,8.20
2022-09-29T01:15:36.246Z,8.20
2022-09-29T01:16:36.418Z,8.22
2022-09-29T01:17:36.182Z,8.21
2022-09-29T01:18:36.633Z,8.22
2022-09-29T01:19:36.571Z,8.22
2022-09-29T01:20:36.453Z,8.21
2022-09-29T01:21:36.548Z,8.21
2022-09-29T01:22:36.208Z,8.21
2022-09-29T01:23:36.390Z,8.18
2022-09-29T01:24:36.193Z,8.18
2022-09-29T01:25:36.322Z,8.18
2022-09-29T01:26:36.216Z,8.20
2022-09-29T01:27:36.175Z,8.18
2022-09-29T01:28:36.174Z,8.17
2022-09-29T01:29:36.399Z,8.14
2022-09-29T01:30:36.256Z,8.14
2022-09-29T01:31:36.188Z,8.17
2022-09-29T01:32:36.035Z,8.13
2022-09-29T01:33:36.281Z,8.13
2022-09-29T01:34:36.197Z,8.13
2022-09-29T01:35:36.171Z,8.13
2022-09-29T01:36:36.130Z,8.13
2022-09-29T01:37:35.996Z,8.12
2022-09-29T01:38:36.028Z,8.12
2022-09-29T01:39:36.057Z,8.12
2022-09-29T01:40:36.082Z,8.07
2022-09-29T01:41:35.976Z,8.06
2022-09-29T01:42:36.058Z,8.04
2022-09-29T01:43:36.109Z,8.06
2022-09-29T01:44:36.031Z,8.04
2022-09-29T01:45:35.985Z,8.03
2022-09-29T01:46:36.137Z,8.03
2022-09-29T01:47:36.061Z,8.03
2022-09-29T01:48:36.319Z,8.02
2022-09-29T01:49:36.015Z,8.02
2022-09-29T01:50:36.034Z,8.02
2022-09-29T01:51:35.967Z,8.00
2022-09-29T01:52:35.868Z,8.00
2022-09-29T01:53:35.847Z,8.00
2022-09-29T01:54:35.917Z,8.00
2022-09-29T01:55:35.790Z,7.99
2022-09-29T01:56:35.811Z,7.99
2022-09-29T01:57:35.833Z,7.96
2022-09-29T01:58:35.784Z,7.95
2022-09-29T01:59:35.951Z,7.95
2022-09-29T02:00:35.842Z,7.94
2022-09-29T02:01:35.763Z,7.94
2022-09-29T02:02:35.902Z,7.92
2022-09-29T02:03:35.627Z,7.91
2022-09-29T02:04:35.776Z,7.91
2022-09-29T02:05:35.749Z,7.89
2022-09-29T02:06:35.839Z,7.91
2022-09-29T02:07:35.713Z,7.86
2022-09-29T02:08:35.662Z,7.85
2022-09-29T02:09:35.633Z,7.85
2022-09-29T02:10:35.575Z,7.82
2022-09-29T02:11:35.587Z,7.81
2022-09-29T02:12:35.834Z,7.79
2022-09-29T02:13:35.559Z,7.79
2022-09-29T02:14:35.654Z,7.81
2022-09-29T02:15:35.478Z,7.79
2022-09-29T02:16:35.779Z,7.79
2022-09-29T02:17:35.686Z,7.79
2022-09-29T02:18:35.593Z,7.77
2022-09-29T02:19:35.593Z,7.77
2022-09-29T02:20:35.477Z,7.76
2022-09-29T02:21:35.552Z,7.76
2022-09-29T02:22:35.539Z,7.74
2022-09-29T02:23:35.367Z,7.74
2022-09-29T02:24:35.569Z,7.71
2022-09-29T02:25:35.420Z,7.71
2022-09-29T02:26:35.456Z,7.70
2022-09-29T02:27:35.586Z,7.70
2022-09-29T02:28:35.398Z,7.70
2022-09-29T02:29:35.501Z,7.70
2022-09-29T02:30:35.587Z,7.69
2022-09-29T02:31:35.571Z,7.69
2022-09-29T02:32:35.282Z,7.69
2022-09-29T02:33:35.394Z,7.67
2022-09-29T02:34:35.332Z,7.67
2022-09-29T02:35:35.241Z,7.66
2022-09-29T02:36:35.388Z,7.62
2022-09-29T02:37:35.319Z,7.60
2022-09-29T02:38:35.211Z,7.60
2022-09-29T02:39:35.292Z,7.58
2022-09-29T02:40:35.248Z,7.57
2022-09-29T02:41:35.260Z,7.57
2022-09-29T02:42:35.443Z,7.55
2022-09-29T02:43:35.155Z,7.55
2022-09-29T02:44:35.183Z,7.52
2022-09-29T02:45:35.378Z,7.52
2022-09-29T02:46:35.236Z,7.50
2022-09-29T02:47:35.179Z,7.47
2022-09-29T02:48:36.720Z,7.45
2022-09-29T02:49:35.203Z,7.42
2022-09-29T02:50:35.213Z,7.42
2022-09-29T02:51:35.118Z,7.41
2022-09-29T02:52:35.020Z,7.41
2022-09-29T02:53:35.093Z,7.41
2022-09-29T02:54:35.024Z,7.39
2022-09-29T02:55:35.132Z,7.37
2022-09-29T02:56:34.997Z,7.39
2022-09-29T02:57:35.172Z,7.37
2022-09-29T02:58:35.006Z,7.37
2022-09-29T02:59:34.919Z,7.39
2022-09-29T03:00:35.007Z,7.39
2022-09-29T03:01:34.954Z,7.36
2022-09-29T03:02:34.904Z,7.36
2022-09-29T03:03:35.078Z,7.33
2022-09-29T03:04:34.845Z,7.32
2022-09-29T03:05:35.024Z,7.29
2022-09-29T03:06:34.974Z,7.29
2022-09-29T03:07:34.975Z,7.30
2022-09-29T03:08:34.814Z,7.27
2022-09-29T03:09:35.247Z,7.24
2022-09-29T03:10:34.855Z,7.24
2022-09-29T03:11:34.759Z,7.21
2022-09-29T03:12:34.870Z,7.23
2022-09-29T03:13:34.782Z,7.24
2022-09-29T03:14:34.958Z,7.23
2022-09-29T03:15:34.691Z,7.23
2022-09-29T03:16:34.837Z,7.24
2022-09-29T03:17:34.795Z,7.24
2022-09-29T03:18:34.768Z,7.24
2022-09-29T03:19:34.833Z,7.23
2022-09-29T03:20:34.659Z,7.24
2022-09-29T03:21:34.723Z,7.21
2022-09-29T03:22:34.809Z,7.23
2022-09-29T03:23:34.592Z,7.23
2022-09-29T03:24:34.793Z,7.21
2022-09-29T03:25:34.594Z,7.23
2022-09-29T03:26:34.721Z,7.21
2022-09-29T03:27:34.560Z,7.21
2022-09-29T03:28:34.539Z,7.19
2022-09-29T03:29:34.590Z,7.19
2022-09-29T03:30:34.562Z,7.18
2022-09-29T03:31:34.659Z,7.16
2022-09-29T03:32:34.596Z,7.14
2022-09-29T03:33:34.441Z,7.14
2022-09-29T03:34:34.534Z,7.12
2022-09-29T03:35:34.473Z,7.09
2022-09-29T03:36:34.455Z,7.09
2022-09-29T03:37:34.444Z,7.05
2022-09-29T03:38:34.577Z,7.05
2022-09-29T03:39:34.545Z,7.05
2022-09-29T03:40:34.543Z,7.01
2022-09-29T03:41:34.313Z,7.04
2022-09-29T03:42:34.459Z,7.01
2022-09-29T03:43:34.486Z,7.01
2022-09-29T03:44:34.378Z,7.01
2022-09-29T03:45:34.323Z,7.04
2022-09-29T03:46:34.406Z,7.04
2022-09-29T03:47:34.350Z,7.04
2022-09-29T03:48:34.588Z,7.05
2022-09-29T03:49:34.658Z,7.05
2022-09-29T03:50:34.392Z,7.04
2022-09-29T03:51:34.322Z,7.00
2022-09-29T03:52:34.241Z,6.97
2022-09-29T03:53:34.262Z,6.96
2022-09-29T03:54:34.256Z,6.96
2022-09-29T03:55:34.262Z,6.96
2022-09-29T03:56:34.354Z,6.96
2022-09-29T03:57:34.182Z,6.97
2022-09-29T03:58:34.202Z,6.99
2022-09-29T03:59:34.168Z,6.99
2022-09-29T04:00:34.205Z,6.99
2022-09-29T04:01:34.194Z,6.97
2022-09-29T04:02:34.195Z,6.97
2022-09-29T04:03:34.182Z,6.97
2022-09-29T04:04:34.150Z,6.91
2022-09-29T04:05:34.642Z,6.91
2022-09-29T04:06:34.120Z,6.89
2022-09-29T04:07:34.029Z,6.89
2022-09-29T04:08:34.337Z,6.89
2022-09-29T04:09:34.041Z,6.86
2022-09-29T04:10:34.200Z,6.86
2022-09-29T04:11:34.072Z,6.86
2022-09-29T04:12:34.285Z,6.86
2022-09-29T04:13:34.224Z,6.83
2022-09-29T04:14:33.890Z,6.83
2022-09-29T04:15:34.144Z,6.82
2022-09-29T04:16:34.051Z,6.81
2022-09-29T04:17:34.401Z,6.82
2022-09-29T04:18:33.860Z,6.82
2022-09-29T04:19:34.221Z,6.82
2022-09-29T04:20:33.871Z,6.82
2022-09-29T04:21:33.898Z,6.79
2022-09-29T04:22:33.959Z,6.79
2022-09-29T04:23:34.061Z,6.79
2022-09-29T04:24:34.044Z,6.78
2022-09-29T04:25:33.870Z,6.75
2022-09-29T04:26:33.849Z,6.79
2022-09-29T04:27:34.060Z,6.78
2022-09-29T04:28:33.751Z,6.73
2022-09-29T04:29:33.932Z,6.69
2022-09-29T04:30:33.774Z,6.65
2022-09-29T04:31:34.066Z,6.65
2022-09-29T04:32:33.758Z,6.64
2022-09-29T04:33:33.824Z,6.64
2022-09-29T04:34:33.882Z,6.64
2022-09-29T04:35:36.935Z,6.64
2022-09-29T04:36:34.102Z,6.65
2022-09-29T04:37:33.782Z,6.68
2022-09-29T04:38:33.650Z,6.68
2022-09-29T04:39:33.835Z,6.65
2022-09-29T04:40:34.033Z,6.68
2022-09-29T04:41:33.994Z,6.69
2022-09-29T04:42:33.740Z,6.68
2022-09-29T04:43:33.622Z,6.64
2022-09-29T04:44:33.555Z,6.61
2022-09-29T04:45:33.574Z,6.60
2022-09-29T04:46:33.570Z,6.58
2022-09-29T04:47:33.732Z,6.58
2022-09-29T04:48:35.818Z,6.60
2022-09-29T04:49:33.541Z,6.60
2022-09-29T04:50:33.582Z,6.60
2022-09-29T04:51:33.566Z,6.61
2022-09-29T04:52:33.510Z,6.63
2022-09-29T04:53:33.627Z,6.63
2022-09-29T04:54:37.637Z,6.64
2022-09-29T04:55:33.968Z,6.63
2022-09-29T04:56:33.608Z,6.63
2022-09-29T04:57:33.956Z,6.64
2022-09-29T04:58:33.959Z,6.61
2022-09-29T04:59:33.495Z,6.61
2022-09-29T05:00:34.398Z,6.61
2022-09-29T05:01:33.605Z,6.61
2022-09-29T05:02:33.866Z,6.57
2022-09-29T05:03:33.682Z,6.57
2022-09-29T05:04:33.349Z,6.57
2022-09-29T05:05:33.321Z,6.55
2022-09-29T05:06:33.320Z,6.57
2022-09-29T05:07:33.435Z,6.53
2022-09-29T05:08:33.448Z,6.54
2022-09-29T05:09:33.998Z,6.53
2022-09-29T05:10:33.498Z,6.54
2022-09-29T05:11:33.233Z,6.53
2022-09-29T05:12:33.379Z,6.51
2022-09-29T05:13:33.323Z,6.51
2022-09-29T05:14:33.198Z,6.51
2022-09-29T05:15:33.351Z,6.51
2022-09-29T05:16:34.900Z,6.53
2022-09-29T05:17:35.022Z,6.51
2022-09-29T05:18:41.733Z,6.51
2022-09-29T05:19:34.877Z,6.50
2022-09-29T05:20:41.790Z,6.53
2022-09-29T05:21:35.403Z,6.51
2022-09-29T05:22:34.591Z,6.51
2022-09-29T05:23:34.911Z,6.53
2022-09-29T05:24:36.410Z,6.51
2022-09-29T05:26:44.676Z,6.54
2022-09-29T05:27:44.339Z,6.51
2022-09-29T05:28:45.234Z,6.53
2022-09-29T05:29:44.221Z,6.53
2022-09-29T05:30:44.239Z,6.51
2022-09-29T05:31:44.122Z,6.46
2022-09-29T05:32:44.008Z,6.43
2022-09-29T05:33:44.245Z,6.40
2022-09-29T05:34:45.282Z,6.39
2022-09-29T05:35:44.033Z,6.40
2022-09-29T05:36:44.250Z,6.42
2022-09-29T05:37:44.411Z,6.42
2022-09-29T05:38:46.812Z,6.43
2022-09-29T05:39:44.017Z,6.42
2022-09-29T05:40:43.945Z,6.45
2022-09-29T05:41:43.928Z,6.45
2022-09-29T05:42:43.877Z,6.45
2022-09-29T05:43:43.890Z,6.46
2022-09-29T05:44:43.894Z,6.46
2022-09-29T05:45:43.857Z,6.48
2022-09-29T05:46:43.828Z,6.48
2022-09-29T05:47:43.824Z,6.50
2022-09-29T05:48:43.819Z,6.48
2022-09-29T05:49:43.819Z,6.50
2022-09-29T05:50:43.771Z,6.51
2022-09-29T05:51:43.851Z,6.50
2022-09-29T05:52:43.693Z,6.51
2022-09-29T05:53:43.745Z,6.51
2022-09-29T05:54:43.668Z,6.50
2022-09-29T05:55:43.746Z,6.53
2022-09-29T05:56:45.499Z,6.53
2022-09-29T05:57:44.171Z,6.53
2022-09-29T05:58:44.927Z,6.55
2022-09-29T05:59:44.434Z,6.55
2022-09-29T06:00:44.261Z,6.53
2022-09-29T06:01:44.864Z,6.50
2022-09-29T06:02:44.576Z,6.48
2022-09-29T06:03:44.006Z,6.48
2022-09-29T06:04:43.824Z,6.50
2022-09-29T06:05:43.893Z,6.50
2022-09-29T06:06:44.376Z,6.50
2022-09-29T06:07:43.701Z,6.51
2022-09-29T06:08:44.424Z,6.53
2022-09-29T06:09:44.052Z,6.50
2022-09-29T06:10:43.571Z,6.50
2022-09-29T06:11:43.983Z,6.50
2022-09-29T06:12:44.006Z,6.53
2022-09-29T06:13:53.833Z,6.54
2022-09-29T06:14:50.170Z,6.54
2022-09-29T06:15:57.974Z,6.57
2022-09-29T06:16:51.690Z,6.57
2022-09-29T06:17:57.841Z,6.60
2022-09-29T06:18:51.676Z,6.60
2022-09-29T06:22:58.376Z,6.65
2022-09-29T06:23:59.393Z,6.65
2022-09-29T06:24:58.702Z,6.65
2022-09-29T06:25:58.009Z,6.69
2022-09-29T06:26:59.324Z,6.69
2022-09-29T06:27:58.108Z,6.72
2022-09-29T06:28:58.052Z,6.72
2022-09-29T06:29:57.884Z,6.72
2022-09-29T06:30:58.201Z,6.72
2022-09-29T06:31:58.666Z,6.75
2022-09-29T06:32:57.864Z,6.75
2022-09-29T06:33:57.821Z,6.75
2022-09-29T06:34:58.765Z,6.75
2022-09-29T06:35:58.025Z,6.76
2022-09-29T06:36:57.862Z,6.78
2022-09-29T06:37:58.022Z,6.78
2022-09-29T06:38:57.818Z,6.79
2022-09-29T06:39:57.757Z,6.81
2022-09-29T06:40:57.954Z,6.83
2022-09-29T06:41:57.803Z,6.83
2022-09-29T06:42:57.785Z,6.87
2022-09-29T06:43:57.739Z,6.87
2022-09-29T06:44:58.465Z,6.89
2022-09-29T06:45:57.758Z,6.91
2022-09-29T06:46:58.142Z,6.91
2022-09-29T06:47:57.629Z,6.91
2022-09-29T06:48:57.923Z,6.94
2022-09-29T06:50:07.373Z,6.96
2022-09-29T06:51:08.405Z,6.99
2022-09-29T06:51:59.021Z,6.97
2022-09-29T06:53:03.867Z,6.99
2022-09-29T06:54:09.175Z,7.04
2022-09-29T06:54:58.614Z,7.05
2022-09-29T06:55:57.480Z,7.07
2022-09-29T06:56:57.607Z,7.09
2022-09-29T06:58:02.766Z,7.11
2022-09-29T06:58:58.748Z,7.15
2022-09-29T06:59:57.688Z,7.19
2022-09-29T07:00:57.523Z,7.21
2022-09-29T07:01:57.613Z,7.27
2022-09-29T07:02:57.534Z,7.33
2022-09-29T07:04:10.636Z,7.39
2022-09-29T07:04:58.172Z,7.42
2022-09-29T07:06:18.390Z,7.42
2022-09-29T07:08:45.772Z,7.45
2022-09-29T07:09:43.963Z,7.45
2022-09-29T07:10:43.504Z,7.47
2022-09-29T07:11:43.662Z,7.48
2022-09-29T07:15:56.412Z,7.55
2022-09-29T07:18:15.483Z,7.60
2022-09-29T07:19:14.777Z,7.60
2022-09-29T07:20:14.301Z,7.63
2022-09-29T07:23:03.417Z,7.70
2022-09-29T07:24:02.771Z,7.70
2022-09-29T07:25:03.723Z,7.74
2022-09-29T07:26:02.779Z,7.77
2022-09-29T07:27:02.476Z,7.81
2022-09-29T07:28:02.567Z,7.85
2022-09-29T07:29:02.483Z,7.88
2022-09-29T07:30:04.292Z,7.89
2022-09-29T07:31:12.679Z,7.94
2022-09-29T07:32:03.563Z,7.96
2022-09-29T07:33:02.862Z,8.00
2022-09-29T07:34:02.287Z,8.00
2022-09-29T07:35:07.589Z,8.03
2022-09-29T07:36:03.664Z,8.03
2022-09-29T07:37:03.854Z,8.04
2022-09-29T07:38:03.470Z,8.07
2022-09-29T07:39:02.449Z,8.09
2022-09-29T07:40:03.223Z,8.10
2022-09-29T07:41:09.242Z,8.12
2022-09-29T07:42:08.474Z,8.14
2022-09-29T07:43:03.359Z,8.17
2022-09-29T07:44:03.052Z,8.21
2022-09-29T07:45:02.518Z,8.25
2022-09-29T07:46:02.990Z,8.29
2022-09-29T07:47:05.542Z,8.31
2022-09-29T07:48:05.243Z,8.40
2022-09-29T07:49:03.266Z,8.52
2022-09-29T07:50:12.800Z,8.60
2022-09-29T07:51:28.290Z,8.60
2022-09-29T07:52:03.106Z,8.60
2022-09-29T07:53:06.945Z,8.61
2022-09-29T07:54:06.436Z,8.63
2022-09-29T07:55:06.268Z,8.65
2022-09-29T07:56:17.701Z,8.68
2022-09-29T07:57:08.389Z,8.73
2022-09-29T07:59:49.658Z,8.80
2022-09-29T08:00:21.239Z,8.82
2022-09-29T08:01:25.085Z,8.85
2022-09-29T08:02:29.157Z,8.89
2022-09-29T08:03:32.458Z,8.96
2022-09-29T08:04:36.395Z,8.98
2022-09-29T08:34:55.361Z,10.02
2022-09-29T08:35:18.854Z,10.11
2022-09-29T08:36:20.679Z,10.20
2022-09-29T08:37:20.155Z,10.38
2022-09-29T08:38:19.091Z,10.55
2022-09-29T08:39:22.785Z,10.70
2022-09-29T08:40:19.703Z,10.93
2022-09-29T08:41:19.510Z,11.12
2022-09-29T08:42:18.460Z,11.17
2022-09-29T08:43:30.054Z,11.01
2022-09-29T08:44:34.079Z,10.87
2022-09-29T08:45:19.791Z,10.78
2022-09-29T08:46:31.282Z,10.66
2022-09-29T08:47:21.864Z,10.55
2022-09-29T08:48:23.128Z,10.49
2022-09-29T08:49:28.806Z,10.46
2022-09-29T08:50:19.395Z,10.44
2022-09-29T08:51:18.870Z,10.46
2022-09-29T08:52:18.144Z,10.49
2022-09-29T08:53:27.705Z,10.46
2022-09-29T08:54:28.748Z,10.43
2022-09-29T08:55:21.780Z,10.46
2022-09-29T08:56:19.578Z,10.46
2022-09-29T08:57:20.715Z,10.49
2022-09-29T08:58:21.380Z,10.54
2022-09-29T08:59:19.089Z,10.57
2022-09-29T09:00:18.037Z,10.60
2022-09-29T09:01:18.264Z,10.62
2022-09-29T09:02:18.121Z,10.60
2022-09-29T09:03:18.230Z,10.62
2022-09-29T09:04:17.951Z,10.65
2022-09-29T09:05:18.647Z,10.69
2022-09-29T09:06:22.176Z,10.66
2022-09-29T09:07:19.364Z,10.70
2022-09-29T09:08:18.901Z,10.75
2022-09-29T09:09:17.910Z,10.90
2022-09-29T09:10:18.910Z,11.23
2022-09-29T09:11:17.973Z,11.56
2022-09-29T09:12:21.849Z,11.63
2022-09-29T09:13:18.900Z,11.59
2022-09-29T09:14:18.866Z,11.53
2022-09-29T09:15:18.042Z,11.48
2022-09-29T09:16:18.377Z,11.44
2022-09-29T09:17:17.801Z,11.39
2022-09-29T09:18:17.754Z,11.36
2022-09-29T09:19:17.803Z,11.33
2022-09-29T09:20:20.978Z,11.28
2022-09-29T09:21:17.644Z,11.27
2022-09-29T09:22:17.657Z,11.26
2022-09-29T09:23:20.192Z,11.28
2022-09-29T09:24:25.314Z,11.33
2022-09-29T09:25:18.915Z,11.33
2022-09-29T09:26:23.366Z,11.31
2022-09-29T09:27:17.600Z,11.31
2022-09-29T09:28:17.728Z,11.33
2022-09-29T09:29:17.748Z,11.31
2022-09-29T09:30:17.587Z,11.28
2022-09-29T09:31:18.302Z,11.33
2022-09-29T09:32:20.539Z,11.31
2022-09-29T09:33:28.383Z,11.28
2022-09-29T09:34:22.382Z,11.28
2022-09-29T09:35:23.748Z,11.30
2022-09-29T09:36:29.341Z,11.35
2022-09-29T09:37:18.678Z,11.39
2022-09-29T09:38:22.758Z,11.44
2022-09-29T09:39:19.261Z,11.48
2022-09-29T09:40:17.794Z,11.53
2022-09-29T09:41:17.574Z,11.54
2022-09-29T09:42:17.751Z,11.60
2022-09-29T09:43:17.931Z,11.66
2022-09-29T09:44:18.112Z,11.69
2022-09-29T09:45:17.373Z,11.74
2022-09-29T09:46:32.284Z,11.78
2022-09-29T09:49:40.671Z,11.88
2022-09-29T09:50:41.435Z,11.94
2022-09-29T09:52:39.693Z,12.04
2022-09-29T09:53:38.885Z,12.05
2022-09-29T09:54:38.748Z,12.11
2022-09-29T09:55:39.767Z,12.15
2022-09-29T09:56:43.483Z,12.23
2022-09-29T09:57:38.419Z,12.43
2022-09-29T09:58:39.526Z,12.67
2022-09-29T10:00:54.322Z,12.85
2022-09-29T10:01:55.843Z,12.92
2022-09-29T10:02:54.120Z,12.95
2022-09-29T10:03:53.340Z,12.94
2022-09-29T10:06:56.058Z,12.85
2022-09-29T10:07:54.300Z,12.92
2022-09-29T10:08:54.617Z,12.94
2022-09-29T10:09:54.025Z,12.92
2022-09-29T10:10:59.368Z,12.84
2022-09-29T10:11:55.441Z,12.79
2022-09-29T10:13:05.315Z,12.76
2022-09-29T10:13:54.610Z,12.74
2022-09-29T10:14:54.363Z,12.70
2022-09-29T10:15:53.592Z,12.69
2022-09-29T10:16:53.619Z,12.71
2022-09-29T10:17:53.617Z,12.74
2022-09-29T10:18:53.695Z,12.70
2022-09-29T10:19:53.935Z,12.70
2022-09-29T10:20:53.667Z,12.71
2022-09-29T10:21:53.831Z,12.73
2022-09-29T10:22:55.523Z,12.74
2022-09-29T10:23:54.606Z,12.77
2022-09-29T10:24:55.327Z,12.81
2022-09-29T10:25:54.599Z,12.81
2022-09-29T10:26:54.203Z,12.85
2022-09-29T10:27:57.173Z,12.85
2022-09-29T10:28:54.440Z,12.88
2022-09-29T10:29:56.327Z,12.87
2022-09-29T10:30:55.472Z,12.87
2022-09-29T10:31:54.911Z,12.89
2022-09-29T10:43:07.660Z,12.95
2022-09-29T10:50:17.482Z,12.76
2022-09-29T10:50:50.840Z,12.71
2022-09-29T11:08:47.369Z,14.27
2022-09-29T11:09:45.551Z,14.17
2022-09-29T11:12:20.304Z,13.71
2022-09-29T11:13:16.080Z,13.50
2022-09-29T11:14:15.045Z,13.43
2022-09-29T11:15:14.240Z,13.41
2022-09-29T11:16:16.019Z,13.32
2022-09-29T11:17:16.163Z,13.38
2022-09-29T11:20:56.474Z,13.17
2022-09-29T11:22:10.747Z,13.14
2022-09-29T11:23:05.030Z,13.14
2022-09-29T11:24:24.538Z,13.31
2022-09-29T11:27:32.421Z,13.53
2022-09-29T11:30:26.956Z,13.35
2022-09-29T11:31:23.084Z,13.24
2022-09-29T11:35:51.191Z,13.94
2022-09-29T11:36:45.369Z,14.13
2022-09-29T11:39:49.497Z,14.01
2022-09-29T11:39:56.156Z,13.99
2022-09-29T11:59:15.273Z,13.94
2022-09-29T12:00:11.428Z,13.96
2022-09-29T12:03:31.835Z,14.05
2022-09-29T12:04:37.552Z,14.09
2022-09-29T12:08:29.909Z,14.04
2022-09-29T12:15:22.213Z,14.69
2022-09-29T12:26:00.318Z,15.13
2022-09-29T13:42:50.334Z,13.86
2022-09-29T13:46:36.415Z,13.96
2022-09-29T13:50:28.656Z,14.01
2022-09-29T14:07:30.753Z,14.27
2022-09-29T14:18:49.020Z,14.16
2022-09-29T15:43:30.774Z,13.79
2022-09-29T15:46:19.660Z,13.76
2022-09-29T15:49:58.099Z,13.75
2022-09-29T15:52:43.167Z,13.75
2022-09-29T15:53:36.113Z,13.72
2022-09-29T15:54:29.775Z,13.72
2022-09-29T15:55:28.688Z,13.71
2022-09-29T15:56:36.141Z,13.73
2022-09-29T15:57:35.171Z,13.73
2022-09-29T15:58:44.592Z,13.75
2022-09-29T15:59:34.803Z,13.76
2022-09-29T16:01:08.997Z,13.79
2022-09-29T16:07:16.171Z,13.71
2022-09-29T16:13:17.774Z,13.66
2022-09-29T16:14:24.626Z,13.66
2022-09-29T16:15:22.846Z,13.68
2022-09-29T16:16:21.661Z,13.68
2022-09-29T16:17:26.250Z,13.66
2022-09-29T16:18:32.493Z,13.66
2022-09-29T16:20:04.956Z,13.66
2022-09-29T16:38:04.427Z,13.19
2022-09-29T16:39:04.243Z,13.14
2022-09-29T16:39:59.963Z,13.13
2022-09-29T16:40:56.159Z,13.12
2022-09-29T16:42:05.432Z,13.10
2022-09-29T16:43:34.013Z,13.07
2022-09-29T16:45:22.676Z,13.04
2022-09-29T16:46:22.055Z,13.01
2022-09-29T16:47:44.005Z,12.98
2022-09-29T16:48:46.313Z,12.95
2022-09-29T16:49:52.245Z,12.95
2022-09-29T16:52:57.212Z,12.91
2022-09-29T16:53:55.694Z,12.88
2022-09-29T16:54:59.467Z,12.87
2022-09-29T16:55:58.788Z,12.84
2022-09-29T16:57:05.443Z,12.84
2022-09-29T16:58:20.004Z,12.80
2022-09-29T17:00:11.378Z,12.76
2022-09-29T17:01:11.784Z,12.73
2022-09-29T17:02:09.080Z,12.69
2022-09-29T17:03:11.173Z,12.66
2022-09-29T17:04:20.499Z,12.66
2022-09-29T17:05:14.968Z,12.62
2022-09-29T17:06:09.090Z,12.62
2022-09-29T17:07:31.957Z,12.59
2022-09-29T17:12:54.393Z,12.49
2022-09-29T17:13:55.470Z,12.46
2022-09-29T17:14:54.506Z,12.44
2022-09-29T17:15:54.304Z,12.43
2022-09-29T17:16:54.480Z,12.40
2022-09-29T17:17:55.240Z,12.37
2022-09-29T17:18:54.237Z,12.36
2022-09-29T17:19:54.341Z,12.34
2022-09-29T17:20:54.569Z,12.33
2022-09-29T17:21:55.592Z,12.30
2022-09-29T17:22:56.291Z,12.29
2022-09-29T17:23:54.396Z,12.26
2022-09-29T17:24:54.301Z,12.23
2022-09-29T17:25:55.933Z,12.23
2022-09-29T17:26:56.593Z,12.19
2022-09-29T17:27:55.593Z,12.19
2022-09-29T17:28:54.584Z,12.15
2022-09-29T17:29:53.777Z,12.13
2022-09-29T17:30:54.339Z,12.12
2022-09-29T17:31:54.124Z,12.08
2022-09-29T17:32:54.212Z,12.05
2022-09-29T17:33:54.796Z,12.03
2022-09-29T17:34:53.933Z,12.00
2022-09-29T17:35:56.041Z,11.96
2022-09-29T17:36:54.033Z,11.93
2022-09-29T17:37:54.204Z,11.93
2022-09-29T17:38:53.838Z,11.87
2022-09-29T17:39:54.352Z,11.82
2022-09-29T17:40:54.924Z,11.78
2022-09-29T17:41:53.696Z,11.74
2022-09-29T17:42:54.026Z,11.72
2022-09-29T17:43:54.127Z,11.72
2022-09-29T17:44:53.962Z,11.69
2022-09-29T17:45:55.235Z,11.67
2022-09-29T17:47:01.050Z,11.66
2022-09-29T17:47:55.450Z,11.64
2022-09-29T17:48:54.208Z,11.62
2022-09-29T17:49:57.701Z,11.56
2022-09-29T17:50:53.621Z,11.56
2022-09-29T17:51:53.618Z,11.54
2022-09-29T17:52:53.553Z,11.53
2022-09-29T17:53:53.694Z,11.51
2022-09-29T17:54:53.775Z,11.49
2022-09-29T17:55:53.655Z,11.45
2022-09-29T17:56:53.568Z,11.44
2022-09-29T17:57:53.582Z,11.41
2022-09-29T17:58:53.749Z,11.35
2022-09-29T17:59:53.956Z,11.30
2022-09-29T18:00:53.890Z,11.27
2022-09-29T18:01:53.555Z,11.26
2022-09-29T18:02:53.801Z,11.24
2022-09-29T18:03:53.845Z,11.23
2022-09-29T18:04:53.601Z,11.19
2022-09-29T18:06:08.755Z,11.13
2022-09-29T18:06:55.268Z,11.12
2022-09-29T18:07:54.042Z,11.11
2022-09-29T18:09:14.066Z,11.08
2022-09-29T18:09:53.670Z,11.06
2022-09-29T18:10:54.375Z,11.06
2022-09-29T18:11:54.322Z,11.05
2022-09-29T18:12:53.340Z,11.03
2022-09-29T18:13:53.741Z,11.01
2022-09-29T18:14:55.374Z,10.99
2022-09-29T18:15:55.524Z,10.99
2022-09-29T18:16:53.860Z,10.94
2022-09-29T18:17:54.730Z,10.91
2022-09-29T18:18:58.011Z,10.90
2022-09-29T18:19:54.456Z,10.87
2022-09-29T18:20:53.514Z,10.87
2022-09-29T18:21:53.270Z,10.83
2022-09-29T18:22:54.310Z,10.83
2022-09-29T18:23:54.004Z,10.81
2022-09-29T18:24:53.703Z,10.80
2022-09-29T18:25:53.577Z,10.78
2022-09-29T18:26:53.325Z,10.73
2022-09-29T18:27:53.066Z,10.73
2022-09-29T18:28:53.776Z,10.72
2022-09-29T18:29:53.432Z,10.70
2022-09-29T18:30:53.880Z,10.70
2022-09-29T18:31:53.261Z,10.69
2022-09-29T18:32:53.182Z,10.69
2022-09-29T18:33:53.280Z,10.68
2022-09-29T18:34:54.336Z,10.66
2022-09-29T18:35:54.884Z,10.68
2022-09-29T18:36:55.062Z,10.65
2022-09-29T18:37:55.146Z,10.60
2022-09-29T18:38:53.699Z,10.58
2022-09-29T18:39:53.155Z,10.54
2022-09-29T18:40:53.564Z,10.54
2022-09-29T18:41:53.698Z,10.52
2022-09-29T18:42:53.981Z,10.49
2022-09-29T18:43:56.124Z,10.47
2022-09-29T18:44:54.549Z,10.46
2022-09-29T18:45:53.262Z,10.44
2022-09-29T18:46:53.696Z,10.44
2022-09-29T18:47:53.401Z,10.44
2022-09-29T18:48:53.716Z,10.44
2022-09-29T18:49:53.257Z,10.39
2022-09-29T18:50:53.686Z,10.38
2022-09-29T18:51:52.990Z,10.36
2022-09-29T18:52:53.047Z,10.35
2022-09-29T18:53:53.422Z,10.35
2022-09-29T18:54:53.366Z,10.35
2022-09-29T18:55:53.692Z,10.32
2022-09-29T18:56:54.762Z,10.29
2022-09-29T18:57:52.773Z,10.29
2022-09-29T18:58:52.877Z,10.28
2022-09-29T18:59:53.519Z,10.29
2022-09-29T19:00:53.378Z,10.26
2022-09-29T19:01:52.899Z,10.28
2022-09-29T19:02:53.112Z,10.26
2022-09-29T19:03:53.564Z,10.25
2022-09-29T19:04:53.964Z,10.24
2022-09-29T19:05:54.327Z,10.24
2022-09-29T19:06:54.290Z,10.22
2022-09-29T19:07:54.705Z,10.20
2022-09-29T19:10:19.670Z,10.18
2022-09-29T19:11:17.771Z,10.17
2022-09-29T19:12:17.673Z,10.17
2022-09-29T19:13:18.023Z,10.16
2022-09-29T19:14:19.389Z,10.14
2022-09-29T19:15:18.248Z,10.11
2022-09-29T19:16:17.149Z,10.11
2022-09-29T19:17:16.943Z,10.10
2022-09-29T19:18:18.002Z,10.09
2022-09-29T19:19:17.330Z,10.10